Liberty Bay — KLBO — position and weather

sailwx.info

Track history (hours):
 
Tides and Currents Weather Stations Pressure Air Temp Water Temp Dewpoint Dewpoint Depression Visibility Wind Speed Wind Dir Waves Ship Positions

Liberty Bay

Owner: EXXON COMMUNICATIONS COMPANY, THE WOODLANDS, TX. More information available from US FCC via Universal Licensing System and Coast Guard Vessel Documentation Center.

Last reported at 2017-Oct-18 06:00 UTC. Time now 2017-Oct-19 07:02 UTC.
Position N 54°18' W 142°12'.

Length 251 m; draft 8.2 m.

Type: Ship. MMSI: 368127000.

Wind from 210 at 30 knots

Barometer 976.2 mb
Air temperature 8.9 ° C

Date/timePositionNaut miles runAvg speedWind from/ knotsBaromVisibWave heightAir tempDewpointWater temp
2017-Oct-18 06:00N 54°18' W 142°12'   210 / 30976.2 8.9
2017-Oct-13 06:00N 52°06' W 138°30'17314.4 290 / 371027.0 5.4 12.2
2017-Oct-12 18:00N 50°06' W 135°12'25210.5 320 / 301025.510.8 12.8
2017-Oct-11 18:00N 46°24' W 132°12'92 7.7 320 / 301024.610.8 16.1
2017-Oct-11 06:00N 45°00' W 131°18'117 9.8 330 / 371020.710.8 14.4
2017-Oct-10 18:00N 43°36' W 129°24'15913.2 330 / 301019.5 5.4 15.6
2017-Oct-10 06:00N 41°24' W 127°24'13811.5 350 / 371015.510.8 15.6
2017-Oct-09 18:00N 39°36' W 125°30'64 6.3 330 / 241012.710.8 17.8
2017-Oct-09 07:44N 38°44' W 124°41'1 4.3
2017-Oct-09 07:27N 38°43' W 124°40'2 5.4
2017-Oct-09 07:00N 38°41' W 124°39'3 4.9
2017-Oct-09 06:29N 38°39' W 124°37'2 4.9
2017-Oct-09 06:00N 38°37' W 124°36'81613.6
2017-Oct-09 06:00N 38°30' W 124°30'3 2.9 340 / 371011.9 5.4 14.4
2017-Oct-09 04:56N 38°33' W 124°32'2 4.3
2017-Oct-09 04:30N 38°31' W 124°31'2 3.9
2017-Oct-09 04:00N 38°29' W 124°30'2 3.1
2017-Oct-09 03:29N 38°28' W 124°28'2 3.3
2017-Oct-09 02:49N 38°26' W 124°27'1 2.6
2017-Oct-09 02:30N 38°26' W 124°26'2 3.4
2017-Oct-09 01:57N 38°24' W 124°25'1 2.8
2017-Oct-09 01:30N 38°23' W 124°24'1 2.6
2017-Oct-09 00:57N 38°22' W 124°23'4 2.2
2017-Oct-08 23:05N 38°19' W 124°19'0 2.0
2017-Oct-08 23:00N 38°19' W 124°19'1 2.9
2017-Oct-08 22:30N 38°18' W 124°18'2 3.4
2017-Oct-08 21:55N 38°16' W 124°16'3 6.1
2017-Oct-08 21:30N 38°14' W 124°14'3 6.1
2017-Oct-08 21:00N 38°12' W 124°12'3 5.2
2017-Oct-08 20:30N 38°10' W 124°10'3 5.8
2017-Oct-08 20:00N 38°08' W 124°07'3 6.1
2017-Oct-08 19:30N 38°05' W 124°05'3 5.8
2017-Oct-08 18:55N 38°03' W 124°02'2 5.6
2017-Oct-08 18:30N 38°01' W 124°01'2 4.9
2017-Oct-08 18:00N 37°59' W 123°59'2 5.0
2017-Oct-08 17:30N 37°57' W 123°57'2 4.8
2017-Oct-08 17:00N 37°55' W 123°55'3 6.1
2017-Oct-08 16:30N 37°52' W 123°53'3 5.8
2017-Oct-08 16:00N 37°50' W 123°51'3 6.3
2017-Oct-08 15:30N 37°47' W 123°49'3 7.0
2017-Oct-08 15:00N 37°44' W 123°46'4 7.4
2017-Oct-08 14:30N 37°41' W 123°43'3 6.3
2017-Oct-08 13:59N 37°39' W 123°41'3 5.2
2017-Oct-08 13:27N 37°37' W 123°39'3 5.1
2017-Oct-08 12:58N 37°35' W 123°37'10 7.1
2017-Oct-08 11:36N 37°34' W 123°25'1 7.0
2017-Oct-08 11:29N 37°34' W 123°24'4 7.9
2017-Oct-08 11:00N 37°34' W 123°19'4 7.9
2017-Oct-08 10:30N 37°34' W 123°14'4 8.2
2017-Oct-08 10:00N 37°34' W 123°09'4 7.9
2017-Oct-08 09:30N 37°34' W 123°04'5 9.7
2017-Oct-08 09:00N 37°37' W 122°59'5 9.6
2017-Oct-08 08:30N 37°39' W 122°53'5 9.4
2017-Oct-08 08:01N 37°42' W 122°49'510.4
2017-Oct-08 07:30N 37°44' W 122°42'4 7.8
2017-Oct-08 07:00N 37°46' W 122°39'611.3
2017-Oct-08 06:30N 37°48' W 122°32'511.0
2017-Oct-08 06:00N 37°51' W 122°26'  
Track history (hours):
 
Tides and Currents Weather Stations Pressure Air Temp Water Temp Dewpoint Dewpoint Depression Visibility Wind Speed Wind Dir Waves Ship Positions

Liberty Bay

Owner: EXXON COMMUNICATIONS COMPANY, THE WOODLANDS, TX. More information available from US FCC via Universal Licensing System and Coast Guard Vessel Documentation Center.

Last reported at 2017-Oct-18 06:00 UTC. Time now 2017-Oct-19 07:02 UTC.
Position N 54°18' W 142°12'.

Length 251 m; draft 8.2 m.

Type: Ship. MMSI: 368127000.

Wind from 210 at 30 knots

Barometer 976.2 mb
Air temperature 8.9 ° C

Date/timePositionNaut miles runAvg speedWind from/ knotsBaromVisibWave heightAir tempDewpointWater temp
2017-Oct-18 06:00N 54°18' W 142°12'   210 / 30976.2 8.9
2017-Oct-13 06:00N 52°06' W 138°30'17314.4 290 / 371027.0 5.4 12.2
2017-Oct-12 18:00N 50°06' W 135°12'25210.5 320 / 301025.510.8 12.8
2017-Oct-11 18:00N 46°24' W 132°12'92 7.7 320 / 301024.610.8 16.1
2017-Oct-11 06:00N 45°00' W 131°18'117 9.8 330 / 371020.710.8 14.4
2017-Oct-10 18:00N 43°36' W 129°24'15913.2 330 / 301019.5 5.4 15.6
2017-Oct-10 06:00N 41°24' W 127°24'13811.5 350 / 371015.510.8 15.6
2017-Oct-09 18:00N 39°36' W 125°30'64 6.3 330 / 241012.710.8 17.8
2017-Oct-09 07:44N 38°44' W 124°41'1 4.3
2017-Oct-09 07:27N 38°43' W 124°40'2 5.4
2017-Oct-09 07:00N 38°41' W 124°39'3 4.9
2017-Oct-09 06:29N 38°39' W 124°37'2 4.9
2017-Oct-09 06:00N 38°37' W 124°36'81613.6
2017-Oct-09 06:00N 38°30' W 124°30'3 2.9 340 / 371011.9 5.4 14.4
2017-Oct-09 04:56N 38°33' W 124°32'2 4.3
2017-Oct-09 04:30N 38°31' W 124°31'2 3.9
2017-Oct-09 04:00N 38°29' W 124°30'2 3.1
2017-Oct-09 03:29N 38°28' W 124°28'2 3.3
2017-Oct-09 02:49N 38°26' W 124°27'1 2.6
2017-Oct-09 02:30N 38°26' W 124°26'2 3.4
2017-Oct-09 01:57N 38°24' W 124°25'1 2.8
2017-Oct-09 01:30N 38°23' W 124°24'1 2.6
2017-Oct-09 00:57N 38°22' W 124°23'4 2.2
2017-Oct-08 23:05N 38°19' W 124°19'0 2.0
2017-Oct-08 23:00N 38°19' W 124°19'1 2.9
2017-Oct-08 22:30N 38°18' W 124°18'2 3.4
2017-Oct-08 21:55N 38°16' W 124°16'3 6.1
2017-Oct-08 21:30N 38°14' W 124°14'3 6.1
2017-Oct-08 21:00N 38°12' W 124°12'3 5.2
2017-Oct-08 20:30N 38°10' W 124°10'3 5.8
2017-Oct-08 20:00N 38°08' W 124°07'3 6.1
2017-Oct-08 19:30N 38°05' W 124°05'3 5.8
2017-Oct-08 18:55N 38°03' W 124°02'2 5.6
2017-Oct-08 18:30N 38°01' W 124°01'2 4.9
2017-Oct-08 18:00N 37°59' W 123°59'2 5.0
2017-Oct-08 17:30N 37°57' W 123°57'2 4.8
2017-Oct-08 17:00N 37°55' W 123°55'3 6.1
2017-Oct-08 16:30N 37°52' W 123°53'3 5.8
2017-Oct-08 16:00N 37°50' W 123°51'3 6.3
2017-Oct-08 15:30N 37°47' W 123°49'3 7.0
2017-Oct-08 15:00N 37°44' W 123°46'4 7.4
2017-Oct-08 14:30N 37°41' W 123°43'3 6.3
2017-Oct-08 13:59N 37°39' W 123°41'3 5.2
2017-Oct-08 13:27N 37°37' W 123°39'3 5.1
2017-Oct-08 12:58N 37°35' W 123°37'10 7.1
2017-Oct-08 11:36N 37°34' W 123°25'1 7.0
2017-Oct-08 11:29N 37°34' W 123°24'4 7.9
2017-Oct-08 11:00N 37°34' W 123°19'4 7.9
2017-Oct-08 10:30N 37°34' W 123°14'4 8.2
2017-Oct-08 10:00N 37°34' W 123°09'4 7.9
2017-Oct-08 09:30N 37°34' W 123°04'5 9.7
2017-Oct-08 09:00N 37°37' W 122°59'5 9.6
2017-Oct-08 08:30N 37°39' W 122°53'5 9.4
2017-Oct-08 08:01N 37°42' W 122°49'510.4
2017-Oct-08 07:30N 37°44' W 122°42'4 7.8
2017-Oct-08 07:00N 37°46' W 122°39'611.3
2017-Oct-08 06:30N 37°48' W 122°32'511.0
2017-Oct-08 06:00N 37°51' W 122°26'  

Dump ship's entire track history